createdAt,value
2023-02-06T00:01:02.047Z,18.70
2023-02-06T00:04:17.105Z,18.40
2023-02-06T00:07:19.347Z,18.30
2023-02-06T00:10:21.763Z,18.40
2023-02-06T00:13:24.051Z,18.60
2023-02-06T00:16:29.266Z,18.70
2023-02-06T00:19:31.923Z,18.50
2023-02-06T00:22:34.230Z,18.50
2023-02-06T00:25:36.803Z,18.50
2023-02-06T00:28:39.003Z,18.70
2023-02-06T00:31:41.332Z,18.80
2023-02-06T00:34:44.562Z,18.80
2023-02-06T00:37:49.153Z,18.70
2023-02-06T00:40:51.197Z,18.80
2023-02-06T00:43:53.591Z,18.70
2023-02-06T00:46:56.214Z,18.70
2023-02-06T00:49:58.501Z,18.70
2023-02-06T00:53:00.582Z,18.80
2023-02-06T00:56:03.311Z,18.60
2023-02-06T00:59:06.253Z,18.70
2023-02-06T01:02:08.576Z,18.70
2023-02-06T01:05:11.341Z,19.40
2023-02-06T01:08:13.682Z,18.80
2023-02-06T01:11:21.987Z,18.80
2023-02-06T01:14:24.319Z,18.80
2023-02-06T01:17:26.614Z,18.90
2023-02-06T01:20:28.916Z,18.80
2023-02-06T01:23:30.920Z,18.80
2023-02-06T01:26:33.534Z,18.90
2023-02-06T01:29:35.560Z,19.00
2023-02-06T01:32:40.092Z,18.90
2023-02-06T01:35:42.082Z,19.00
2023-02-06T01:38:45.385Z,18.90
2023-02-06T01:41:48.422Z,18.80
2023-02-06T01:45:32.535Z,18.80
2023-02-06T01:48:45.658Z,18.80
2023-02-06T01:51:50.080Z,18.80
2023-02-06T01:54:57.148Z,18.80
2023-02-06T01:58:01.011Z,18.90
2023-02-06T02:01:04.419Z,18.90
2023-02-06T02:04:13.051Z,19.00
2023-02-06T02:07:24.281Z,18.90
2023-02-06T02:10:31.563Z,19.00
2023-02-06T02:13:34.388Z,18.80
2023-02-06T02:16:50.123Z,18.80
2023-02-06T02:20:28.106Z,18.70
2023-02-06T02:23:58.154Z,18.90
2023-02-06T02:27:36.803Z,18.80
2023-02-06T02:30:39.107Z,19.00
2023-02-06T02:33:50.180Z,18.90
2023-02-06T02:37:11.834Z,18.90
2023-02-06T02:40:46.298Z,19.00
2023-02-06T02:44:09.778Z,19.00
2023-02-06T02:47:14.369Z,19.10
2023-02-06T02:50:18.560Z,19.10
2023-02-06T02:53:21.241Z,19.10
2023-02-06T02:56:25.119Z,19.10
2023-02-06T02:59:41.303Z,19.20
2023-02-06T03:02:45.926Z,19.10
2023-02-06T03:06:04.985Z,19.20
2023-02-06T03:09:26.274Z,19.20
2023-02-06T03:12:58.221Z,19.10
2023-02-06T03:16:15.849Z,19.10
2023-02-06T03:19:23.650Z,19.10
2023-02-06T03:22:28.236Z,19.00
2023-02-06T03:25:36.304Z,19.00
2023-02-06T03:28:44.255Z,19.10
2023-02-06T03:32:17.331Z,19.00
2023-02-06T03:35:31.733Z,19.00
2023-02-06T03:38:33.927Z,19.10
2023-02-06T03:41:39.842Z,19.00
2023-02-06T03:44:47.307Z,19.00
2023-02-06T03:47:52.206Z,19.00
2023-02-06T03:50:57.659Z,19.00
2023-02-06T03:54:03.982Z,19.10
2023-02-06T03:57:08.594Z,19.00
2023-02-06T04:00:11.842Z,19.00
2023-02-06T04:03:14.727Z,19.00
2023-02-06T04:06:17.155Z,19.10
2023-02-06T04:09:19.177Z,19.00
2023-02-06T04:12:22.483Z,19.10
2023-02-06T04:15:25.571Z,19.00
2023-02-06T04:18:28.111Z,18.80
2023-02-06T04:21:30.128Z,18.90
2023-02-06T04:24:33.150Z,18.90
2023-02-06T04:27:35.321Z,19.00
2023-02-06T04:30:37.757Z,18.90
2023-02-06T04:33:40.829Z,19.00
2023-02-06T04:36:43.211Z,19.00
2023-02-06T04:39:45.203Z,19.20
2023-02-06T04:42:47.514Z,19.10
2023-02-06T04:45:49.645Z,19.00
2023-02-06T04:48:52.074Z,19.10
2023-02-06T04:51:54.084Z,19.00
2023-02-06T04:54:56.462Z,19.00
2023-02-06T04:57:58.470Z,19.10
2023-02-06T05:01:01.375Z,19.10
2023-02-06T05:04:03.906Z,19.00
2023-02-06T05:07:06.290Z,19.00
2023-02-06T05:10:09.398Z,19.10
2023-02-06T05:13:12.032Z,19.00
2023-02-06T05:16:15.920Z,19.00
2023-02-06T05:19:18.166Z,19.00
2023-02-06T05:22:20.176Z,19.00
2023-02-06T05:25:22.437Z,19.00
2023-02-06T05:28:25.219Z,19.00
2023-02-06T05:31:27.745Z,19.00
2023-02-06T05:34:29.802Z,19.00
2023-02-06T05:37:32.144Z,19.00
2023-02-06T05:40:34.276Z,18.90
2023-02-06T05:43:36.696Z,18.90
2023-02-06T05:46:38.858Z,19.00
2023-02-06T05:49:43.950Z,18.90
2023-02-06T05:52:46.039Z,18.90
2023-02-06T05:55:48.291Z,19.00
2023-02-06T05:58:50.363Z,18.90
2023-02-06T06:01:52.762Z,18.90
2023-02-06T06:04:54.875Z,19.10
2023-02-06T06:07:57.191Z,19.10
2023-02-06T06:11:01.188Z,19.00
2023-02-06T06:14:04.360Z,19.00
2023-02-06T06:17:06.518Z,19.30
2023-02-06T06:20:09.201Z,19.00
2023-02-06T06:23:11.309Z,19.00
2023-02-06T06:26:13.605Z,19.10
2023-02-06T06:29:15.670Z,19.00
2023-02-06T06:32:19.110Z,19.20
2023-02-06T06:35:21.136Z,19.20
2023-02-06T06:38:23.407Z,19.20
2023-02-06T06:41:25.529Z,19.20
2023-02-06T06:44:27.810Z,19.20
2023-02-06T06:47:29.882Z,19.40
2023-02-06T06:50:32.298Z,19.40
2023-02-06T06:53:34.559Z,19.30
2023-02-06T06:56:36.821Z,19.10
2023-02-06T06:59:39.427Z,19.10
2023-02-06T07:02:41.857Z,19.10
2023-02-06T07:05:43.915Z,19.20
2023-02-06T07:08:46.258Z,19.40
2023-02-06T07:11:48.335Z,19.60
2023-02-06T07:14:53.536Z,19.80
2023-02-06T07:17:55.537Z,19.60
2023-02-06T07:20:57.815Z,20.30
2023-02-06T07:24:01.765Z,19.80
2023-02-06T07:27:04.085Z,19.70
2023-02-06T07:30:06.727Z,20.40
2023-02-06T07:33:09.613Z,19.80
2023-02-06T07:36:13.858Z,19.80
2023-02-06T07:39:16.294Z,19.90
2023-02-06T07:42:18.873Z,19.90
2023-02-06T07:45:21.284Z,19.80
2023-02-06T07:48:23.275Z,19.70
2023-02-06T07:51:25.765Z,19.80
2023-02-06T07:54:27.842Z,19.60
2023-02-06T07:57:30.186Z,19.70
2023-02-06T08:00:32.179Z,19.70
2023-02-06T08:03:36.923Z,20.00
2023-02-06T08:06:42.658Z,20.00
2023-02-06T08:09:47.985Z,19.90
2023-02-06T08:12:50.090Z,20.00
2023-02-06T08:15:52.509Z,20.50
2023-02-06T08:18:54.560Z,20.10
2023-02-06T08:21:56.866Z,19.90
2023-02-06T08:24:58.850Z,20.00
2023-02-06T08:28:18.984Z,20.00
2023-02-06T08:31:29.085Z,20.10
2023-02-06T08:34:31.462Z,20.00
2023-02-06T08:37:33.510Z,19.90
2023-02-06T08:40:35.947Z,19.90
2023-02-06T08:43:37.925Z,19.80
2023-02-06T08:46:40.913Z,19.80
2023-02-06T08:49:42.928Z,19.80
2023-02-06T08:52:45.300Z,19.70
2023-02-06T08:55:47.298Z,19.90
2023-02-06T08:58:49.623Z,19.60
2023-02-06T09:01:52.249Z,19.70
2023-02-06T09:04:54.550Z,19.30
2023-02-06T09:07:56.666Z,19.40
2023-02-06T09:11:29.056Z,19.50
2023-02-06T09:14:31.767Z,19.60
2023-02-06T09:17:34.277Z,19.40
2023-02-06T09:20:36.413Z,19.60
2023-02-06T09:23:40.527Z,19.30
2023-02-06T09:26:58.436Z,19.20
2023-02-06T09:30:02.091Z,19.30
2023-02-06T09:33:04.235Z,19.20
2023-02-06T09:36:09.838Z,19.00
2023-02-06T09:39:11.959Z,19.10
2023-02-06T09:42:26.031Z,19.00
2023-02-06T09:45:30.092Z,19.20
2023-02-06T09:48:38.307Z,18.90
2023-02-06T09:52:13.300Z,18.90
2023-02-06T09:55:28.476Z,19.00
2023-02-06T09:58:59.571Z,19.00
2023-02-06T10:02:39.917Z,18.80
2023-02-06T10:05:48.057Z,18.90
2023-02-06T10:09:02.814Z,18.40
2023-02-06T10:12:25.234Z,18.30
2023-02-06T10:15:38.882Z,18.50
2023-02-06T10:18:46.248Z,17.90
2023-02-06T10:22:02.497Z,18.30
2023-02-06T10:25:30.202Z,18.00
2023-02-06T10:28:35.435Z,18.10
2023-02-06T10:31:45.189Z,17.30
2023-02-06T10:34:56.224Z,17.40
2023-02-06T10:38:22.822Z,17.10
2023-02-06T10:42:09.793Z,17.30
2023-02-06T10:45:33.366Z,17.50
2023-02-06T10:48:35.696Z,17.70
2023-02-06T10:51:45.295Z,17.90
2023-02-06T10:54:53.557Z,17.70
2023-02-06T10:58:14.699Z,18.10
2023-02-06T11:01:25.948Z,17.50
2023-02-06T11:05:05.084Z,17.60
2023-02-06T11:08:25.310Z,17.30
2023-02-06T11:11:31.228Z,17.60
2023-02-06T11:14:37.579Z,17.10
2023-02-06T11:17:39.626Z,17.20
2023-02-06T11:20:44.006Z,17.00
2023-02-06T11:23:48.316Z,17.00
2023-02-06T11:27:00.940Z,17.00
2023-02-06T11:30:09.381Z,17.50
2023-02-06T11:33:45.364Z,17.70
2023-02-06T11:36:52.390Z,17.50
2023-02-06T11:39:54.744Z,17.00
2023-02-06T11:43:18.915Z,17.20
2023-02-06T11:46:26.901Z,17.30
2023-02-06T11:49:29.484Z,17.00
2023-02-06T11:52:34.148Z,17.10
2023-02-06T11:55:38.504Z,17.10
2023-02-06T11:58:41.219Z,16.90
2023-02-06T12:01:47.898Z,17.20
2023-02-06T12:04:53.708Z,17.00
2023-02-06T12:08:10.437Z,17.20
2023-02-06T12:11:42.050Z,17.60
2023-02-06T12:14:59.188Z,17.40
2023-02-06T12:18:06.036Z,17.50
2023-02-06T12:21:15.411Z,16.90
2023-02-06T12:24:23.725Z,17.00
2023-02-06T12:27:39.561Z,17.10
2023-02-06T12:30:48.259Z,17.30
2023-02-06T12:33:55.401Z,17.30
2023-02-06T12:37:31.382Z,17.40
2023-02-06T12:41:21.432Z,17.40
2023-02-06T12:44:42.931Z,17.20
2023-02-06T12:48:01.364Z,17.30
2023-02-06T12:51:21.722Z,17.00
2023-02-06T12:54:32.822Z,17.30
2023-02-06T12:57:38.760Z,17.00
2023-02-06T13:01:31.037Z,17.10
2023-02-06T13:04:37.616Z,16.80
2023-02-06T13:07:49.048Z,16.80
2023-02-06T13:11:02.937Z,16.80
2023-02-06T13:14:24.016Z,16.90
2023-02-06T13:17:33.951Z,16.90
2023-02-06T13:21:14.103Z,17.00
2023-02-06T13:24:18.941Z,17.20
2023-02-06T13:27:41.663Z,16.80
2023-02-06T13:30:48.150Z,16.80
2023-02-06T13:33:53.240Z,17.00
2023-02-06T13:36:55.537Z,17.10
2023-02-06T13:40:26.520Z,16.90
2023-02-06T13:43:31.874Z,16.70
2023-02-06T13:47:02.232Z,16.60
2023-02-06T13:50:05.738Z,16.70
2023-02-06T13:53:23.038Z,16.50
2023-02-06T13:56:34.257Z,16.60
2023-02-06T13:59:42.116Z,16.60
2023-02-06T14:02:48.759Z,16.40
2023-02-06T14:06:24.728Z,16.40
2023-02-06T14:10:03.898Z,16.80
2023-02-06T14:13:39.448Z,16.60
2023-02-06T14:17:22.345Z,17.00
2023-02-06T14:20:30.524Z,16.90
2023-02-06T14:24:00.516Z,17.00
2023-02-06T14:27:19.799Z,17.00
2023-02-06T14:30:43.333Z,16.90
2023-02-06T14:34:06.617Z,16.90
2023-02-06T14:37:43.045Z,16.70
2023-02-06T14:40:50.638Z,16.60
2023-02-06T14:43:53.458Z,16.80
2023-02-06T14:46:56.947Z,16.70
2023-02-06T14:50:01.053Z,16.90
2023-02-06T14:53:15.173Z,16.90
2023-02-06T14:56:24.368Z,17.20
2023-02-06T14:59:26.543Z,17.20
2023-02-06T15:02:32.715Z,17.20
2023-02-06T15:05:35.642Z,17.40
2023-02-06T15:08:38.797Z,17.60
2023-02-06T15:11:40.783Z,17.40
2023-02-06T15:14:51.677Z,17.60
2023-02-06T15:18:04.636Z,17.70
2023-02-06T15:21:11.156Z,17.50
2023-02-06T15:24:32.139Z,17.70
2023-02-06T15:27:37.140Z,17.70
2023-02-06T15:30:39.793Z,17.70
2023-02-06T15:33:42.434Z,18.00
2023-02-06T15:36:44.744Z,17.90
2023-02-06T15:39:47.560Z,17.80
2023-02-06T15:42:51.078Z,18.00
2023-02-06T15:45:58.914Z,18.50
2023-02-06T15:49:01.144Z,18.20
2023-02-06T15:52:04.915Z,18.10
2023-02-06T15:55:07.112Z,18.30
2023-02-06T15:58:15.296Z,18.50
2023-02-06T16:01:20.310Z,18.50
2023-02-06T16:05:37.486Z,18.50
2023-02-06T16:12:16.360Z,18.60
2023-02-06T16:15:27.102Z,18.60
2023-02-06T16:18:39.500Z,18.80
2023-02-06T16:25:37.933Z,19.00
2023-02-06T16:28:51.344Z,19.00
2023-02-06T16:32:04.809Z,19.00
2023-02-06T16:35:12.447Z,18.90
2023-02-06T16:38:28.708Z,19.10
2023-02-06T16:41:51.117Z,18.90
2023-02-06T16:45:10.460Z,18.80
2023-02-06T16:48:17.321Z,19.00
2023-02-06T16:51:22.184Z,19.40
2023-02-06T16:54:27.938Z,18.80
2023-02-06T16:57:36.392Z,18.80
2023-02-06T17:00:39.120Z,18.80
2023-02-06T17:03:41.577Z,18.80
2023-02-06T17:06:44.092Z,18.80
2023-02-06T17:09:47.679Z,18.80
2023-02-06T17:12:50.930Z,19.20
2023-02-06T17:15:53.982Z,19.20
2023-02-06T17:18:56.655Z,18.80
2023-02-06T17:22:01.618Z,19.10
2023-02-06T17:25:03.828Z,18.80
2023-02-06T17:28:21.016Z,19.40
2023-02-06T17:31:23.419Z,19.10
2023-02-06T17:34:30.353Z,19.00
2023-02-06T17:37:33.397Z,19.10
2023-02-06T17:40:37.758Z,18.80
2023-02-06T17:43:40.254Z,19.00
2023-02-06T17:46:42.902Z,18.80
2023-02-06T17:49:46.902Z,19.00
2023-02-06T17:52:53.511Z,19.00
2023-02-06T17:56:02.846Z,18.90
2023-02-06T17:59:06.421Z,19.10
2023-02-06T18:02:12.828Z,18.90
2023-02-06T18:05:15.241Z,18.90
2023-02-06T18:08:18.462Z,18.90
2023-02-06T18:11:24.744Z,19.10
2023-02-06T18:14:26.726Z,18.70
2023-02-06T18:17:31.728Z,18.80
2023-02-06T18:20:35.997Z,19.10
2023-02-06T18:23:39.270Z,19.30
2023-02-06T18:26:41.527Z,18.80
2023-02-06T18:29:50.558Z,19.20
2023-02-06T18:32:55.875Z,18.80
2023-02-06T18:35:58.303Z,19.10
2023-02-06T18:39:00.635Z,18.70
2023-02-06T18:42:21.639Z,18.80
2023-02-06T18:45:26.287Z,19.10
2023-02-06T18:48:28.705Z,19.00
2023-02-06T18:51:31.291Z,19.00
2023-02-06T18:54:34.867Z,19.00
2023-02-06T18:57:39.722Z,18.90
2023-02-06T19:00:43.346Z,19.10
2023-02-06T19:03:45.465Z,18.50
2023-02-06T19:06:48.294Z,19.00
2023-02-06T19:09:50.324Z,18.60
2023-02-06T19:12:52.630Z,19.00
2023-02-06T19:16:06.380Z,18.40
2023-02-06T19:19:10.229Z,18.70
2023-02-06T19:22:13.100Z,18.80
2023-02-06T19:25:15.638Z,18.70
2023-02-06T19:28:17.708Z,18.70
2023-02-06T19:31:23.995Z,19.10
2023-02-06T19:34:39.941Z,19.00
2023-02-06T19:37:42.825Z,19.00
2023-02-06T19:40:47.453Z,19.30
2023-02-06T19:43:57.054Z,19.40
2023-02-06T19:47:00.444Z,19.50
2023-02-06T19:50:04.012Z,19.20
2023-02-06T19:53:10.270Z,19.40
2023-02-06T19:56:24.285Z,19.60
2023-02-06T19:59:34.300Z,19.40
2023-02-06T20:02:56.253Z,19.40
2023-02-06T20:06:17.485Z,19.00
2023-02-06T20:09:24.894Z,19.10
2023-02-06T20:12:31.616Z,19.40
2023-02-06T20:15:41.923Z,19.20
2023-02-06T20:18:54.278Z,19.20
2023-02-06T20:22:00.717Z,19.20
2023-02-06T20:25:03.156Z,19.00
2023-02-06T20:28:06.025Z,18.60
2023-02-06T20:31:10.275Z,18.90
2023-02-06T20:34:13.179Z,18.90
2023-02-06T20:37:27.515Z,19.00
2023-02-06T20:41:01.666Z,19.10
2023-02-06T20:44:14.320Z,19.00
2023-02-06T20:47:19.093Z,18.70
2023-02-06T20:50:24.753Z,18.60
2023-02-06T20:53:29.913Z,18.60
2023-02-06T20:56:34.054Z,18.60
2023-02-06T20:59:38.603Z,19.00
2023-02-06T21:02:43.273Z,19.00
2023-02-06T21:05:59.048Z,18.60
2023-02-06T21:09:07.123Z,18.80
2023-02-06T21:12:11.886Z,19.10
2023-02-06T21:15:18.416Z,19.20
2023-02-06T21:18:26.783Z,19.00
2023-02-06T21:21:28.813Z,18.60
2023-02-06T21:24:33.269Z,18.50
2023-02-06T21:27:35.360Z,18.50
2023-02-06T21:30:38.686Z,18.60
2023-02-06T21:33:41.002Z,18.70
2023-02-06T21:36:43.614Z,18.90
2023-02-06T21:39:45.652Z,18.90
2023-02-06T21:42:48.078Z,18.50
2023-02-06T21:46:05.254Z,18.60
2023-02-06T21:49:11.493Z,18.80
2023-02-06T21:52:22.715Z,18.60
2023-02-06T21:55:35.290Z,18.70
2023-02-06T21:58:41.024Z,18.70
2023-02-06T22:01:44.589Z,18.80
2023-02-06T22:04:46.896Z,18.10
2023-02-06T22:07:49.326Z,18.50
2023-02-06T22:10:51.409Z,18.40
2023-02-06T22:13:58.170Z,18.60
2023-02-06T22:17:00.827Z,18.20
2023-02-06T22:20:03.272Z,18.30
2023-02-06T22:23:08.999Z,18.10
2023-02-06T22:26:15.612Z,18.30
2023-02-06T22:29:18.451Z,18.20
2023-02-06T22:32:20.806Z,17.90
2023-02-06T22:35:22.837Z,18.10
2023-02-06T22:38:25.227Z,17.90
2023-02-06T22:41:27.975Z,18.00
2023-02-06T22:44:31.664Z,18.10
2023-02-06T22:47:33.910Z,17.90
2023-02-06T22:50:41.728Z,17.80
2023-02-06T22:53:56.528Z,17.80
2023-02-06T22:57:00.229Z,18.00
2023-02-06T23:00:09.762Z,18.20
2023-02-06T23:03:13.778Z,17.80
2023-02-06T23:06:16.699Z,17.90
2023-02-06T23:09:23.172Z,17.80
2023-02-06T23:12:25.198Z,17.40
2023-02-06T23:15:27.523Z,17.80
2023-02-06T23:18:29.929Z,17.60
2023-02-06T23:21:34.505Z,17.80
2023-02-06T23:24:36.955Z,17.90
2023-02-06T23:27:39.252Z,17.60
2023-02-06T23:30:41.284Z,17.80
2023-02-06T23:33:44.352Z,17.90
2023-02-06T23:36:47.079Z,17.70
2023-02-06T23:39:49.851Z,17.60
2023-02-06T23:42:51.834Z,17.70
2023-02-06T23:45:54.205Z,17.50
2023-02-06T23:48:57.232Z,17.50
2023-02-06T23:51:59.536Z,17.80
2023-02-06T23:55:01.875Z,17.90
2023-02-06T23:58:04.159Z,17.70
